Arlington, New Jersey
Current Conditions -  °F | °C
As of 3:51 AM on Monday 20 Oct 2014 (Local Time) from KEWR Reporting Station
Broken Clouds Broken Clouds  
Wind Chill: 34°   Ceiling: 25000
Heat Index: 40°   Visibility: 10mi
Dew Point: 29°   Wind: 8mph
Humidity: 65%   Direction: 260°W
Pressure: 30.09"   Gusts: NA
Location:  40.7563°N, 74.1217°W
Report Text: KEWR 200751Z 26007KT 10SM BKN250 04/M02 A3009 RMK AO2 SLP189 T00441017 $
Loading
Personal Weather Stations






























Interactive Weather Map New forecast layout! Learn more

10-Day Weather Forecast

Advertisements
Track Severe Weather on mobile